Jean-pierre A — TCRF4 — position and weather

sailwx.info

Track history (hours):
 
Tides and Currents Weather Stations Pressure Air Temp Water Temp Dewpoint Dewpoint Depression Visibility Wind Speed Wind Dir Waves Ship Positions

Jean-pierre A

Last reported at 2017-Oct-18 17:26 UTC. Time now 2017-Oct-18 18:45 UTC.
Position N 31°52' E 034°37'.

Length 184 m; draft 8.6 m.

Type: Ship (hazmat cat A). MMSI: 271001063.

Date/timePositionNaut miles runAvg speedWind from/ knotsBaromVisibWave heightAir tempDewpointWater temp
2017-Oct-18 17:26N 31°52' E 034°37'1 3.0
2017-Oct-18 16:59N 31°52' E 034°36'3 6.4
2017-Oct-18 16:30N 31°49' E 034°35'1 1.1
2017-Oct-18 15:56N 31°48' E 034°35'0 0.0
2017-Oct-18 15:04N 31°48' E 034°35'0 0.1
2017-Oct-18 14:58N 31°48' E 034°35'0 0.0
2017-Oct-18 12:15N 31°48' E 034°35'0 0.0
2017-Oct-18 11:51N 31°48' E 034°35'0 0.0
2017-Oct-18 06:18N 31°48' E 034°35'0 0.0
2017-Oct-18 05:12N 31°48' E 034°35'16 2.6
2017-Oct-17 23:08N 32°04' E 034°31'215.2
2017-Oct-17 23:00N 32°05' E 034°32'815.4
2017-Oct-17 22:30N 32°13' E 034°34'815.2
2017-Oct-17 22:00N 32°20' E 034°37'815.1
2017-Oct-17 21:30N 32°27' E 034°39'815.3
2017-Oct-17 21:00N 32°35' E 034°42'714.8
2017-Oct-17 20:30N 32°42' E 034°45'714.6
2017-Oct-17 20:00N 32°49' E 034°47'611.7
2017-Oct-17 19:30N 32°53' E 034°51'9 0.5
2017-Oct-17 02:43N 32°49' E 035°01'52415.9
2017-Oct-15 17:41N 37°25' E 025°55'317.5
2017-Oct-15 17:30N 37°27' E 025°52'816.8
2017-Oct-15 17:01N 37°33' E 025°46'917.6
2017-Oct-15 16:31N 37°42' E 025°45'114 2.7
2017-Oct-13 22:41N 39°24' E 024°42'416.9
2017-Oct-13 22:26N 39°26' E 024°38'917.6
2017-Oct-13 21:57N 39°30' E 024°28'1317.9
2017-Oct-13 21:13N 39°36' E 024°13'417.7
2017-Oct-13 20:58N 39°38' E 024°07'  
2017-Oct-10 15:02N 37°37' E 024°09'1915.6
2017-Oct-10 13:50N 37°39' E 023°45'516.7
2017-Oct-10 13:30N 37°42' E 023°41'816.9
2017-Oct-10 13:00N 37°50' E 023°37'612.8
2017-Oct-10 12:30N 37°57' E 023°36'1 2.1
2017-Oct-10 12:00N 37°57' E 023°35'0 0.0
2017-Oct-10 11:30N 37°57' E 023°35'0 0.0
2017-Oct-10 11:00N 37°57' E 023°35'0 0.0
2017-Oct-10 10:30N 37°57' E 023°35'0 0.0
2017-Oct-10 09:57N 37°57' E 023°35'0 0.0
2017-Oct-10 09:29N 37°57' E 023°35'0 0.0
2017-Oct-10 08:59N 37°57' E 023°35'0 0.0
2017-Oct-10 08:29N 37°57' E 023°35'0 0.0
2017-Oct-10 07:59N 37°57' E 023°35'0 0.0
2017-Oct-10 07:28N 37°57' E 023°35'0 0.0
2017-Oct-10 06:58N 37°57' E 023°35'0 0.0
2017-Oct-10 06:28N 37°57' E 023°35'0 0.0
2017-Oct-10 05:58N 37°57' E 023°35'0 0.0
2017-Oct-10 05:22N 37°57' E 023°35'0 0.0
2017-Oct-10 05:00N 37°57' E 023°35'0 0.0
2017-Oct-10 04:30N 37°57' E 023°35'0 0.0
2017-Oct-10 04:00N 37°57' E 023°35'0 0.0
2017-Oct-10 03:30N 37°57' E 023°35'0 0.0
2017-Oct-10 03:00N 37°57' E 023°35'0 0.0
2017-Oct-10 02:29N 37°57' E 023°35'0 0.0
2017-Oct-10 01:59N 37°57' E 023°35'0 0.0
2017-Oct-10 01:29N 37°57' E 023°35'0 0.0
2017-Oct-10 00:59N 37°57' E 023°35'0 0.0
2017-Oct-10 00:28N 37°57' E 023°35'0 0.0
2017-Oct-09 23:58N 37°57' E 023°35'0 0.0
2017-Oct-09 23:28N 37°57' E 023°35'0 0.0
2017-Oct-09 22:58N 37°57' E 023°35'0 0.0
2017-Oct-09 22:28N 37°57' E 023°35'0 0.0
2017-Oct-09 22:00N 37°57' E 023°35'0 0.0
2017-Oct-09 21:30N 37°57' E 023°35'0 0.0
2017-Oct-09 21:00N 37°57' E 023°35'0 0.0
2017-Oct-09 20:30N 37°57' E 023°35'0 0.0
2017-Oct-09 19:59N 37°57' E 023°35'0 0.0
2017-Oct-09 19:29N 37°57' E 023°35'0 0.0
2017-Oct-09 18:59N 37°57' E 023°35'0 0.0
2017-Oct-09 18:29N 37°57' E 023°35'0 0.0
2017-Oct-09 17:56N 37°57' E 023°35'0 0.0
2017-Oct-09 17:28N 37°57' E 023°35'0 0.0
2017-Oct-09 16:58N 37°57' E 023°35'0 0.0
2017-Oct-09 16:28N 37°57' E 023°35'0 0.0
2017-Oct-09 15:58N 37°57' E 023°35'0 0.0
2017-Oct-09 15:30N 37°57' E 023°35'1 1.6
2017-Oct-09 15:00N 37°57' E 023°36'4 7.3
2017-Oct-09 14:31N 37°54' E 023°38'815.9
2017-Oct-09 14:01N 37°46' E 023°42'816.6
2017-Oct-09 13:30N 37°39' E 023°48'29515.5
2017-Oct-08 18:30N 40°52' E 028°36'  
Track history (hours):
 
Tides and Currents Weather Stations Pressure Air Temp Water Temp Dewpoint Dewpoint Depression Visibility Wind Speed Wind Dir Waves Ship Positions

Jean-pierre A

Last reported at 2017-Oct-18 17:26 UTC. Time now 2017-Oct-18 18:45 UTC.
Position N 31°52' E 034°37'.

Length 184 m; draft 8.6 m.

Type: Ship (hazmat cat A). MMSI: 271001063.

Date/timePositionNaut miles runAvg speedWind from/ knotsBaromVisibWave heightAir tempDewpointWater temp
2017-Oct-18 17:26N 31°52' E 034°37'1 3.0
2017-Oct-18 16:59N 31°52' E 034°36'3 6.4
2017-Oct-18 16:30N 31°49' E 034°35'1 1.1
2017-Oct-18 15:56N 31°48' E 034°35'0 0.0
2017-Oct-18 15:04N 31°48' E 034°35'0 0.1
2017-Oct-18 14:58N 31°48' E 034°35'0 0.0
2017-Oct-18 12:15N 31°48' E 034°35'0 0.0
2017-Oct-18 11:51N 31°48' E 034°35'0 0.0
2017-Oct-18 06:18N 31°48' E 034°35'0 0.0
2017-Oct-18 05:12N 31°48' E 034°35'16 2.6
2017-Oct-17 23:08N 32°04' E 034°31'215.2
2017-Oct-17 23:00N 32°05' E 034°32'815.4
2017-Oct-17 22:30N 32°13' E 034°34'815.2
2017-Oct-17 22:00N 32°20' E 034°37'815.1
2017-Oct-17 21:30N 32°27' E 034°39'815.3
2017-Oct-17 21:00N 32°35' E 034°42'714.8
2017-Oct-17 20:30N 32°42' E 034°45'714.6
2017-Oct-17 20:00N 32°49' E 034°47'611.7
2017-Oct-17 19:30N 32°53' E 034°51'9 0.5
2017-Oct-17 02:43N 32°49' E 035°01'52415.9
2017-Oct-15 17:41N 37°25' E 025°55'317.5
2017-Oct-15 17:30N 37°27' E 025°52'816.8
2017-Oct-15 17:01N 37°33' E 025°46'917.6
2017-Oct-15 16:31N 37°42' E 025°45'114 2.7
2017-Oct-13 22:41N 39°24' E 024°42'416.9
2017-Oct-13 22:26N 39°26' E 024°38'917.6
2017-Oct-13 21:57N 39°30' E 024°28'1317.9
2017-Oct-13 21:13N 39°36' E 024°13'417.7
2017-Oct-13 20:58N 39°38' E 024°07'  
2017-Oct-10 15:02N 37°37' E 024°09'1915.6
2017-Oct-10 13:50N 37°39' E 023°45'516.7
2017-Oct-10 13:30N 37°42' E 023°41'816.9
2017-Oct-10 13:00N 37°50' E 023°37'612.8
2017-Oct-10 12:30N 37°57' E 023°36'1 2.1
2017-Oct-10 12:00N 37°57' E 023°35'0 0.0
2017-Oct-10 11:30N 37°57' E 023°35'0 0.0
2017-Oct-10 11:00N 37°57' E 023°35'0 0.0
2017-Oct-10 10:30N 37°57' E 023°35'0 0.0
2017-Oct-10 09:57N 37°57' E 023°35'0 0.0
2017-Oct-10 09:29N 37°57' E 023°35'0 0.0
2017-Oct-10 08:59N 37°57' E 023°35'0 0.0
2017-Oct-10 08:29N 37°57' E 023°35'0 0.0
2017-Oct-10 07:59N 37°57' E 023°35'0 0.0
2017-Oct-10 07:28N 37°57' E 023°35'0 0.0
2017-Oct-10 06:58N 37°57' E 023°35'0 0.0
2017-Oct-10 06:28N 37°57' E 023°35'0 0.0
2017-Oct-10 05:58N 37°57' E 023°35'0 0.0
2017-Oct-10 05:22N 37°57' E 023°35'0 0.0
2017-Oct-10 05:00N 37°57' E 023°35'0 0.0
2017-Oct-10 04:30N 37°57' E 023°35'0 0.0
2017-Oct-10 04:00N 37°57' E 023°35'0 0.0
2017-Oct-10 03:30N 37°57' E 023°35'0 0.0
2017-Oct-10 03:00N 37°57' E 023°35'0 0.0
2017-Oct-10 02:29N 37°57' E 023°35'0 0.0
2017-Oct-10 01:59N 37°57' E 023°35'0 0.0
2017-Oct-10 01:29N 37°57' E 023°35'0 0.0
2017-Oct-10 00:59N 37°57' E 023°35'0 0.0
2017-Oct-10 00:28N 37°57' E 023°35'0 0.0
2017-Oct-09 23:58N 37°57' E 023°35'0 0.0
2017-Oct-09 23:28N 37°57' E 023°35'0 0.0
2017-Oct-09 22:58N 37°57' E 023°35'0 0.0
2017-Oct-09 22:28N 37°57' E 023°35'0 0.0
2017-Oct-09 22:00N 37°57' E 023°35'0 0.0
2017-Oct-09 21:30N 37°57' E 023°35'0 0.0
2017-Oct-09 21:00N 37°57' E 023°35'0 0.0
2017-Oct-09 20:30N 37°57' E 023°35'0 0.0
2017-Oct-09 19:59N 37°57' E 023°35'0 0.0
2017-Oct-09 19:29N 37°57' E 023°35'0 0.0
2017-Oct-09 18:59N 37°57' E 023°35'0 0.0
2017-Oct-09 18:29N 37°57' E 023°35'0 0.0
2017-Oct-09 17:56N 37°57' E 023°35'0 0.0
2017-Oct-09 17:28N 37°57' E 023°35'0 0.0
2017-Oct-09 16:58N 37°57' E 023°35'0 0.0
2017-Oct-09 16:28N 37°57' E 023°35'0 0.0
2017-Oct-09 15:58N 37°57' E 023°35'0 0.0
2017-Oct-09 15:30N 37°57' E 023°35'1 1.6
2017-Oct-09 15:00N 37°57' E 023°36'4 7.3
2017-Oct-09 14:31N 37°54' E 023°38'815.9
2017-Oct-09 14:01N 37°46' E 023°42'816.6
2017-Oct-09 13:30N 37°39' E 023°48'29515.5
2017-Oct-08 18:30N 40°52' E 028°36'  

Dump ship's entire track history